• Join FlightAware (Why Join?)
  • Login
  • US Flag 
05:21AM EST


 

Airport Tracker/Info


-or-


 

Live Flight TrackerFlight Track Log ✈ N53NW ✈ 24-Oct-2013 ✈ KAUS - KPWA

Flight Track Log - Related Links

Times and Time Zones

All times are in EDT time to prevent confusion due to time zone crossing. See the N53NW flight status page for this flight to view local times or setup timezone preferences in your user account.

Time Position Orientation Groundspeed Altitude Reporting Facility
EDT Latitude Longitude Course Direction KTS MPH feet Rate Location/Type
01:32PM 30.1086 -97.7006 325° Northwest 234 269 6,100  Level Houston Center
01:33PM 30.1769 -97.7519 327° Northwest 253 291 9,900 2,940 Climbing Houston Center
01:34PM 30.2494 -97.7789 342° North 265 305 12,300 2,460 Climbing Houston Center
01:36PM 30.2595 -97.6746 84° East  Level FlightAware Approximate
01:36PM 30.3264 -97.8097 84° East 282 325 15,000  Level Houston Center
01:37PM 30.7293 -97.6677 330° Northwest  Level Estimated
01:38PM 30.8185 -97.6674 325° Northwest  Level Estimated
01:38PM 30.5031 -97.8045 North  Level Estimated
01:38PM 30.4747 -97.8669 North 276 318 19,700  Level Houston Center
01:39PM 30.5508 -97.8969 341° North 282 325 21,700 1,920 Climbing Houston Center
01:40PM 30.6325 -97.9278 342° North 300 345 23,700 1,980 Climbing Houston Center
01:41PM 30.7142 -97.9594 342° North 304 350 25,800 1,980 Climbing Houston Center
01:42PM 30.7956 -97.9908 342° North 303 349 27,800 2,040 Climbing Houston Center
01:43PM 30.8897 -98.0275 342° North 301 346 30,100 1,920 Climbing Houston Center
01:44PM 30.9703 -98.0592 341° North 301 346 31,800 1,560 Climbing Houston Center
01:45PM 31.0533 -98.0906 342° North 307 353 33,400 1,020 Climbing Houston Center
01:46PM 31.1422 -98.1269 341° North 307 353 34,000 240 Climbing Fort Worth Center
01:47PM 31.2447 -98.1325 357° North 340 391 34,000  Level Fort Worth Center
01:48PM 31.3575 -98.1067 11° North 380 437 34,000  Level Fort Worth Center
01:49PM 31.4703 -98.0808 11° North 409 471 34,100 480 Climbing Fort Worth Center
01:50PM 31.5769 -98.0572 11° North 398 458 35,000 420 Climbing Fort Worth Center
01:51PM 31.6731 -98.0333 12° North 392 451 35,000  Level Fort Worth Center
01:52PM 31.7817 -98.0097 10° North 403 464 35,000  Level Fort Worth Center
01:53PM 31.8967 -97.9836 11° North 403 464 35,000  Level Fort Worth Center
01:54PM 32.0158 -97.9597 10° North 403 464 35,000  Level Fort Worth Center
01:55PM 32.1267 -97.9333 11° North 403 464 35,000  Level Fort Worth Center
01:56PM 32.2375 -97.9069 11° North 403 464 35,000  Level Fort Worth Center
01:57PM 32.3503 -97.8831 10° North 403 464 35,000  Level Fort Worth Center
01:58PM 32.4608 -97.8567 11° North 403 464 35,000  Level Fort Worth Center
01:59PM 32.5675 -97.8325 11° North 403 464 35,000  Level Fort Worth Center
02:00PM 32.6783 -97.8058 11° North 398 458 35,000  Level Fort Worth Center
02:01PM 32.7869 -97.7817 11° North 393 452 35,000  Level Fort Worth Center
02:02PM 32.8956 -97.7550 12° North 393 452 35,000  Level Fort Worth Center
02:03PM 33.0042 -97.7331 10° North 393 452 35,000  Level Fort Worth Center
02:04PM 33.1128 -97.7061 12° North 393 452 35,000  Level Fort Worth Center
02:05PM 33.2192 -97.6817 11° North 393 452 35,000  Level Fort Worth Center
02:06PM 33.3300 -97.6547 11° North 393 452 35,000  Level Fort Worth Center
02:07PM 33.4133 -97.6350 11° North 393 452 35,000 -300 Level Fort Worth Center
02:08PM 33.5303 -97.6053 12° North 393 452 34,500 -1,200 Descending Fort Worth Center
02:09PM 33.6411 -97.5806 11° North 393 452 32,700 -1,800 Descending Fort Worth Center
02:10PM 33.7475 -97.5558 11° North 393 452 30,900 -1,800 Descending Fort Worth Center
02:11PM 33.8561 -97.5286 12° North 387 445 29,100 -1,800 Descending Fort Worth Center
02:12PM 33.9625 -97.5011 12° North 392 451 27,300 -1,860 Descending Fort Worth Center
02:13PM 34.0711 -97.4761 11° North 392 451 25,400 -1,680 Descending Fort Worth Center
02:14PM 34.1775 -97.4536 10° North 378 435 24,000 -900 Descending Fort Worth Center
02:15PM 34.2778 -97.4311 11° North 371 427 23,700 -1,260 Descending Fort Worth Center
02:16PM 34.3778 -97.4061 12° North 366 421 21,500 -2,220 Descending Fort Worth Center
02:17PM 34.4717 -97.3808 13° North 353 406 19,300 -1,980 Descending Fort Worth Center
02:18PM 34.5636 -97.3581 12° North 346 398 17,600 -1,800 Descending Fort Worth Center
02:19PM 34.6489 -97.3378 11° North 334 384 15,700 -1,860 Descending Fort Worth Center
02:20PM 34.7367 -97.3175 11° North 323 372 13,900 -1,920 Descending Fort Worth Center
02:20PM 34.7806 -97.3072 11° North 319 367 12,900 -1,920 Descending Fort Worth Center
02:21PM 34.8347 -97.2922 13° North 319 367 11,800 -1,320 Descending Fort Worth Center
02:22PM 34.9036 -97.3097 348° North 296 341 11,000 -840 Descending Fort Worth Center
02:22PM 34.9119 -97.3200 315° West 299 344 11,000 -720 Level Fort Worth Center
02:23PM 34.9703 -97.3653 328° Northwest 283 326 10,300 -1,140 Descending Fort Worth Center
02:23PM 34.9808 -97.3756 321° Northwest 289 333 9,900 -1,680 Descending Fort Worth Center
02:24PM 35.0433 -97.4211 329° Northwest 268 308 8,400 -1,440 Descending Fort Worth Center
02:25PM 35.0956 -97.4642 326° Northwest 272 313 7,300 -1,440 Descending Fort Worth Center
02:25PM 35.1039 -97.4719 323° Northwest 257 296 7,000 -1,440 Descending Fort Worth Center
02:26PM 35.1558 -97.5150 326° Northwest 267 307 5,900 -1,380 Descending Fort Worth Center
02:26PM 35.1683 -97.5278 320° Northwest 267 307 5,600 -1,200 Descending Fort Worth Center
02:27PM 35.2164 -97.5661 327° Northwest 267 307 4,700 -1,200 Descending Fort Worth Center
02:27PM 35.2350 -97.5814 326° Northwest 261 300 4,300 -720 Descending Fort Worth Center
02:28PM 35.2808 -97.5992 342° North 260 299 4,000 -300 Descending Fort Worth Center
02:28PM 35.2956 -97.6094 330° Northwest 228 262 4,000 -120 Level Fort Worth Center
02:29PM 35.3372 -97.6247 343° North 238 274 3,900 -420 Descending Fort Worth Center
02:29PM 35.3539 -97.6325 339° North 205 236 3,600  Descending Fort Worth Center
02:30PM 35.3914 -97.6403 350° North 217 250 3,900 360 Climbing Fort Worth Center
02:30PM 35.4081 -97.6325 21° North 192 221 4,000 -420 Climbing Fort Worth Center
02:31PM 35.4414 -97.6428 346° North 194 223 3,500 -900 Descending Fort Worth Center
02:31PM 35.4539 -97.6456 350° North 163 188 3,100 -1,200 Descending Fort Worth Center
02:32PM 35.4811 -97.6481 356° North 167 192 2,300 -1,020 Descending Fort Worth Center
02:32PM 35.4914 -97.6481 360° North 114 131 2,100 -720 Descending Fort Worth Center
02:33PM 35.5122 -97.6481 360° North 132 152 1,600 -360 Descending Fort Worth Center
02:34PM 35.5478 -97.6508 356° North 132 152 1,500 16,680 Descending Fort Worth Center
02:35PM 35.5853 -97.6508 360° North 132 152 35,000 33,480 Climbing Fort Worth Center